Time;durP1;ratioP1;P1;durP2;ratioP2;P2;SDS_P1;SDS_P2;PMS_P1;PMS_P2;Temp;Humidity;BMP_temperature;BMP_pressure;BME280_temperature;BME280_humidity;BME280_pressure;Samples;Min_cycle;Max_cycle;Signal;HPM_P1;HPM_P2
2022/01/21 00:01:18;;;;;;;10.90;1.30;;;-1.00;99.90;;;;;;5031511;28;20077;-92
2022/01/21 00:03:45;;;;;;;7.80;1.33;;;-1.10;99.90;;;;;;5031614;28;20129;-93
2022/01/21 00:06:12;;;;;;;4.75;1.30;;;-1.10;99.90;;;;;;5031666;28;20076;-92
2022/01/21 00:08:41;;;;;;;16.77;1.90;;;-1.10;99.90;;;;;;5032585;28;20050;-91
2022/01/21 00:11:09;;;;;;;9.75;1.50;;;-1.10;99.90;;;;;;5031472;28;20056;-92
2022/01/21 00:13:37;;;;;;;15.43;2.17;;;-1.20;99.90;;;;;;5031410;28;20046;-93
2022/01/21 00:16:05;;;;;;;11.43;1.60;;;-1.30;99.90;;;;;;5031234;28;20466;-93
2022/01/21 00:18:34;;;;;;;5.28;1.13;;;-1.20;99.90;;;;;;5032253;28;20054;-95
2022/01/21 00:32:14;;;;;;;5.65;1.38;;;-1.20;99.90;;;;;;5015828;28;20049;-92
2022/01/21 00:34:40;;;;;;;8.95;1.05;;;-1.30;99.90;;;;;;5032791;28;20084;-92
2022/01/21 00:37:07;;;;;;;10.18;1.35;;;-1.30;99.90;;;;;;5030828;28;20566;-92
2022/01/21 00:39:35;;;;;;;8.48;1.15;;;-1.30;99.90;;;;;;5030042;28;20137;-92
2022/01/21 00:42:30;;;;;;;5.63;1.23;;;-1.30;99.90;;;;;;5031128;28;20537;-91
2022/01/21 00:44:59;;;;;;;12.63;2.13;;;-1.40;99.90;;;;;;5031265;28;20133;-92
2022/01/21 00:47:27;;;;;;;8.55;1.50;;;-1.30;99.90;;;;;;5031047;28;20074;-92
2022/01/21 00:49:56;;;;;;;5.15;1.20;;;-1.40;99.90;;;;;;5030497;28;20048;-92
2022/01/21 00:52:22;;;;;;;9.40;1.50;;;-1.50;99.90;;;;;;5030889;28;20058;-93
2022/01/21 00:54:49;;;;;;;4.25;1.33;;;-1.50;99.90;;;;;;5030693;28;20056;-93
2022/01/21 00:57:16;;;;;;;9.80;1.70;;;-1.60;99.90;;;;;;5035851;28;20322;-92
2022/01/21 00:59:42;;;;;;;6.65;1.65;;;-1.50;99.90;;;;;;5030685;28;20080;-93
2022/01/21 01:02:09;;;;;;;6.85;1.45;;;-1.50;99.90;;;;;;5030386;28;20589;-93
2022/01/21 01:04:36;;;;;;;5.07;1.25;;;-1.50;99.90;;;;;;5030560;28;20042;-91
2022/01/21 01:07:04;;;;;;;13.38;1.45;;;-1.60;99.90;;;;;;5030417;28;20088;-92
2022/01/21 01:09:31;;;;;;;7.50;1.35;;;-1.80;99.90;;;;;;5033400;28;20113;-93
2022/01/21 01:19:58;;;;;;;8.57;1.27;;;-2.10;99.90;;;;;;5014833;28;20202;-92
2022/01/21 01:22:39;;;;;;;11.77;1.38;;;-2.30;99.90;;;;;;5030323;28;20050;-92
2022/01/21 01:27:53;;;;;;;6.03;1.77;;;-2.50;99.90;;;;;;5014665;28;20052;-93
2022/01/21 01:30:23;;;;;;;16.08;1.63;;;-2.50;99.90;;;;;;5030068;28;20079;-92
2022/01/21 01:32:51;;;;;;;16.10;1.38;;;-2.50;99.90;;;;;;5030141;28;20486;-92
2022/01/21 01:35:20;;;;;;;9.02;1.80;;;-2.50;99.90;;;;;;5030025;28;20088;-93
2022/01/21 01:50:52;;;;;;;7.57;1.83;;;-3.20;99.90;;;;;;5014523;28;20050;-93
2022/01/21 01:53:25;;;;;;;7.65;1.25;;;-3.30;99.90;;;;;;5029951;28;20054;-92
2022/01/21 01:55:52;;;;;;;9.82;1.40;;;-3.30;99.90;;;;;;5029667;28;20045;-92
2022/01/21 01:58:19;;;;;;;8.07;1.40;;;-3.30;99.90;;;;;;5013042;28;20142;-92
2022/01/21 02:00:46;;;;;;;5.20;1.30;;;-3.40;99.90;;;;;;5029195;28;20149;-92
2022/01/21 02:03:15;;;;;;;8.13;1.60;;;-3.50;99.90;;;;;;5029402;28;20060;-92
2022/01/21 02:05:43;;;;;;;4.85;1.05;;;-3.60;99.90;;;;;;5029499;28;20129;-92
2022/01/21 02:08:10;;;;;;;8.27;1.05;;;-3.70;99.90;;;;;;5029354;28;20072;-92
2022/01/21 02:10:39;;;;;;;10.27;1.45;;;-3.80;99.90;;;;;;5029491;28;20065;-92
2022/01/21 02:13:19;;;;;;;2.80;1.00;;;-3.90;99.90;;;;;;5029389;28;20416;-92
2022/01/21 02:16:19;;;;;;;9.73;1.35;;;-3.90;99.90;;;;;;5029393;28;20132;-92
2022/01/21 02:21:42;;;;;;;10.73;1.80;;;-4.00;99.90;;;;;;5013732;28;20475;-91
2022/01/21 02:24:24;;;;;;;10.68;1.17;;;-3.80;99.90;;;;;;5029011;28;20124;-92
2022/01/21 02:26:52;;;;;;;7.22;1.58;;;-3.70;99.90;;;;;;5029071;28;20046;-92
2022/01/21 02:29:31;;;;;;;10.77;1.33;;;-3.70;99.90;;;;;;5029242;28;20054;-92
2022/01/21 02:32:00;;;;;;;6.72;1.38;;;-3.70;99.90;;;;;;5028838;28;20130;-91
2022/01/21 02:34:28;;;;;;;5.90;1.42;;;-3.80;99.90;;;;;;5029098;28;20042;-92
2022/01/21 02:36:55;;;;;;;8.38;1.02;;;-3.80;99.90;;;;;;5029045;28;20073;-92
2022/01/21 02:39:21;;;;;;;11.00;1.48;;;-3.80;99.90;;;;;;5028686;28;20502;-91
2022/01/21 02:41:48;;;;;;;12.82;1.70;;;-3.80;99.90;;;;;;5029401;28;20482;-92
2022/01/21 02:44:17;;;;;;;10.38;1.58;;;-3.80;99.90;;;;;;5029064;28;20478;-91
2022/01/21 02:46:45;;;;;;;6.78;1.35;;;-3.80;99.90;;;;;;5029693;28;20077;-90
2022/01/21 02:49:12;;;;;;;8.68;1.40;;;-3.90;99.90;;;;;;5049920;28;20060;-91
2022/01/21 02:51:39;;;;;;;12.30;1.40;;;-3.70;99.90;;;;;;5032601;28;20046;-91
2022/01/21 02:54:06;;;;;;;18.27;1.92;;;-3.80;99.90;;;;;;5028795;28;20141;-91
2022/01/21 02:56:36;;;;;;;8.35;1.63;;;-3.70;99.90;;;;;;5028883;28;20417;-91
2022/01/21 02:59:05;;;;;;;11.73;1.50;;;-3.80;99.90;;;;;;5028598;28;20054;-91
2022/01/21 03:01:34;;;;;;;9.75;1.55;;;-3.80;99.90;;;;;;5028578;28;20133;-91
2022/01/21 03:04:02;;;;;;;7.55;1.30;;;-3.90;99.90;;;;;;5028644;28;20052;-91
2022/01/21 03:06:29;;;;;;;8.43;1.50;;;-4.10;99.90;;;;;;5028415;28;20049;-91
2022/01/21 03:08:57;;;;;;;14.05;1.70;;;-4.10;99.90;;;;;;5028042;28;20129;-91
2022/01/21 03:11:26;;;;;;;5.40;1.35;;;-4.10;99.90;;;;;;5028658;28;20137;-91
2022/01/21 03:13:53;;;;;;;11.85;1.40;;;-4.20;99.90;;;;;;5028572;28;20058;-91
2022/01/21 03:16:20;;;;;;;5.72;1.17;;;-4.30;99.90;;;;;;5028432;28;20050;-91
2022/01/21 03:18:47;;;;;;;4.78;1.30;;;-4.40;99.90;;;;;;5028497;28;20077;-91
2022/01/21 03:21:17;;;;;;;7.68;1.63;;;-4.40;99.90;;;;;;5028269;28;20137;-90
2022/01/21 03:23:49;;;;;;;10.80;1.95;;;-4.50;99.90;;;;;;5028417;28;20124;-91
2022/01/21 03:26:17;;;;;;;12.07;1.70;;;-4.60;99.90;;;;;;5028940;28;20052;-91
2022/01/21 03:28:47;;;;;;;9.63;1.48;;;-4.60;99.90;;;;;;5028897;28;20137;-90
2022/01/21 03:31:15;;;;;;;9.73;2.40;;;-4.60;99.90;;;;;;5029096;28;20049;-90
2022/01/21 03:33:42;;;;;;;15.77;2.30;;;-4.60;99.90;;;;;;5029003;28;20064;-90
2022/01/21 03:36:10;;;;;;;11.55;1.60;;;-4.60;99.90;;;;;;5031550;28;20478;-90
2022/01/21 03:38:37;;;;;;;6.32;1.52;;;-4.60;99.90;;;;;;5031721;28;20050;-90
2022/01/21 03:41:04;;;;;;;5.75;1.80;;;-4.70;99.90;;;;;;5031747;28;20142;-90
2022/01/21 03:43:32;;;;;;;6.18;2.15;;;-4.70;99.90;;;;;;5032318;28;20053;-90
2022/01/21 03:45:59;;;;;;;7.95;1.73;;;-4.70;99.90;;;;;;5031898;28;20050;-90
2022/01/21 03:48:26;;;;;;;12.32;1.75;;;-4.70;99.90;;;;;;5032183;28;20507;-90
2022/01/21 03:50:53;;;;;;;11.45;1.73;;;-4.70;99.90;;;;;;5032139;28;20136;-90
2022/01/21 03:53:20;;;;;;;12.60;1.80;;;-4.70;99.90;;;;;;5031852;28;20141;-90
2022/01/21 03:55:47;;;;;;;10.13;1.67;;;-4.70;99.90;;;;;;5031688;28;20058;-90
2022/01/21 03:58:15;;;;;;;2.85;1.40;;;-4.70;99.90;;;;;;5031548;28;20058;-89
2022/01/21 04:00:49;;;;;;;4.97;1.40;;;-4.70;99.90;;;;;;5031899;28;20056;-90
2022/01/21 04:03:16;;;;;;;6.75;1.10;;;-4.80;99.90;;;;;;5031861;28;20050;-89
2022/01/21 04:05:42;;;;;;;8.05;1.75;;;-4.80;99.90;;;;;;5031398;28;20401;-90
2022/01/21 04:08:11;;;;;;;17.63;1.75;;;-4.90;99.90;;;;;;5031823;28;20429;-90
2022/01/21 04:10:41;;;;;;;11.13;1.90;;;-4.90;99.90;;;;;;5033960;28;20053;-91
2022/01/21 04:13:15;;;;;;;6.75;1.40;;;-4.90;99.90;;;;;;5031585;28;20057;-90
2022/01/21 04:15:43;;;;;;;8.32;2.30;;;-5.00;99.90;;;;;;5015128;28;20486;-90
2022/01/21 04:18:13;;;;;;;8.98;1.42;;;-5.00;99.90;;;;;;5030842;28;20149;-90
2022/01/21 04:20:41;;;;;;;6.93;1.20;;;-5.00;99.90;;;;;;5031453;28;20177;-90
2022/01/21 04:23:10;;;;;;;6.35;1.63;;;-5.10;99.90;;;;;;5031538;28;20136;-90
2022/01/21 04:25:38;;;;;;;6.60;1.20;;;-5.10;99.90;;;;;;5031240;28;20045;-90
2022/01/21 04:28:05;;;;;;;12.43;1.67;;;-5.20;99.90;;;;;;5031210;28;20132;-90
2022/01/21 04:30:32;;;;;;;7.63;1.65;;;-5.20;99.90;;;;;;5031149;28;20053;-89
2022/01/21 04:32:59;;;;;;;16.08;1.67;;;-5.20;99.90;;;;;;5030925;28;20054;-90
2022/01/21 04:35:26;;;;;;;9.73;1.70;;;-5.30;99.90;;;;;;5031192;28;20065;-89
2022/01/21 04:37:56;;;;;;;8.93;1.13;;;-5.20;99.90;;;;;;5030907;28;20054;-90
2022/01/21 04:40:28;;;;;;;5.00;1.55;;;-5.20;99.90;;;;;;5030508;28;20064;-90
2022/01/21 04:48:27;;;;;;;12.40;3.30;;;-5.30;99.90;;;;;;5015707;28;20038;-90
2022/01/21 04:50:57;;;;;;;8.25;3.08;;;-5.30;99.90;;;;;;5030893;28;20066;-90
2022/01/21 04:53:26;;;;;;;9.43;2.60;;;-5.30;99.90;;;;;;5030814;28;20468;-89
2022/01/21 04:55:53;;;;;;;14.60;3.42;;;-5.40;99.90;;;;;;5030653;28;20494;-90
2022/01/21 04:58:20;;;;;;;9.60;3.83;;;-5.40;99.90;;;;;;5035875;28;20056;-90
2022/01/21 05:00:47;;;;;;;14.15;3.00;;;-5.40;99.90;;;;;;5036173;28;20046;-90
2022/01/21 05:03:14;;;;;;;10.65;1.85;;;-5.40;99.90;;;;;;5035130;28;20123;-89
2022/01/21 05:05:41;;;;;;;11.77;1.90;;;-5.40;99.90;;;;;;5030531;28;20045;-90
2022/01/21 05:08:19;;;;;;;12.68;2.00;;;-5.50;99.90;;;;;;5029995;28;20116;-90
2022/01/21 05:10:46;;;;;;;10.13;1.77;;;-5.50;99.90;;;;;;5030315;28;20050;-90
2022/01/21 05:13:16;;;;;;;5.93;1.63;;;-5.40;99.90;;;;;;5014190;28;20060;-90
2022/01/21 05:16:05;;;;;;;9.50;1.30;;;-5.40;99.90;;;;;;5030113;28;20052;-90
2022/01/21 05:18:32;;;;;;;6.70;1.67;;;-5.50;99.90;;;;;;5030000;28;20133;-90
2022/01/21 05:20:59;;;;;;;11.75;3.40;;;-5.50;99.90;;;;;;5030076;28;20077;-90
2022/01/21 05:23:26;;;;;;;13.85;5.28;;;-5.50;99.90;;;;;;5030141;28;20574;-89
2022/01/21 05:25:54;;;;;;;13.35;5.13;;;-5.50;99.90;;;;;;5029610;28;20049;-90
2022/01/21 05:28:20;;;;;;;22.48;7.57;;;-5.50;99.90;;;;;;5029899;28;20053;-90
2022/01/21 05:30:47;;;;;;;32.88;14.82;;;-5.50;99.90;;;;;;5029804;28;20056;-89
2022/01/21 05:33:14;;;;;;;25.50;10.15;;;-5.50;99.90;;;;;;5013222;28;20132;-90
2022/01/21 05:35:41;;;;;;;13.60;4.90;;;-5.50;99.90;;;;;;5013452;28;20054;-90
2022/01/21 05:38:07;;;;;;;15.18;5.22;;;-5.50;99.90;;;;;;5029337;28;20049;-90
2022/01/21 05:40:34;;;;;;;14.75;4.20;;;-5.60;99.90;;;;;;5028616;28;20137;-90
2022/01/21 05:43:05;;;;;;;11.30;3.28;;;-5.50;99.90;;;;;;5029151;28;20057;-90
2022/01/21 05:48:17;;;;;;;10.85;3.05;;;-5.50;99.90;;;;;;5014049;28;20130;-90
2022/01/21 05:50:44;;;;;;;8.05;3.42;;;-5.50;99.90;;;;;;5029377;28;20050;-90
2022/01/21 05:53:12;;;;;;;10.15;2.58;;;-5.50;99.90;;;;;;5028875;28;20560;-90
2022/01/21 05:55:41;;;;;;;10.68;1.92;;;-5.50;99.90;;;;;;5029306;28;20402;-90
2022/01/21 05:58:10;;;;;;;4.80;1.67;;;-5.50;99.90;;;;;;5028689;28;20123;-90
2022/01/21 06:00:37;;;;;;;10.23;2.03;;;-5.50;99.90;;;;;;5029688;28;20501;-90
2022/01/21 06:03:05;;;;;;;14.05;2.55;;;-5.50;99.90;;;;;;5029173;28;20053;-90
2022/01/21 06:05:33;;;;;;;8.80;1.77;;;-5.50;99.90;;;;;;5013511;28;20049;-90
2022/01/21 06:08:02;;;;;;;8.52;2.08;;;-5.50;99.90;;;;;;5029149;28;20064;-90
2022/01/21 06:10:30;;;;;;;9.95;1.90;;;-5.50;99.90;;;;;;5029005;28;20577;-90
2022/01/21 06:12:57;;;;;;;8.95;2.38;;;-5.50;99.90;;;;;;5029290;28;20054;-89
2022/01/21 06:15:24;;;;;;;12.15;1.98;;;-5.50;99.90;;;;;;5029127;28;20070;-90
2022/01/21 06:17:51;;;;;;;8.45;1.95;;;-5.50;99.90;;;;;;5029069;28;20536;-90
2022/01/21 06:20:18;;;;;;;12.68;2.80;;;-5.60;99.90;;;;;;5029127;28;20146;-90
2022/01/21 06:22:45;;;;;;;13.23;2.13;;;-5.50;99.90;;;;;;5029133;28;20144;-90
2022/01/21 06:25:12;;;;;;;10.07;1.92;;;-5.50;99.90;;;;;;5028962;28;20137;-90
2022/01/21 06:27:39;;;;;;;11.57;2.40;;;-5.50;99.90;;;;;;5028857;28;20402;-90
2022/01/21 06:30:12;;;;;;;13.57;2.42;;;-5.50;99.90;;;;;;5028314;28;20088;-90
2022/01/21 06:32:42;;;;;;;19.38;2.85;;;-5.50;99.90;;;;;;5028773;28;20069;-90
2022/01/21 06:35:10;;;;;;;18.00;9.05;;;-5.50;99.90;;;;;;5012690;28;20057;-89
2022/01/21 06:37:38;;;;;;;14.93;4.63;;;-5.50;99.90;;;;;;5028790;28;20052;-90
2022/01/21 06:40:07;;;;;;;10.13;2.45;;;-5.40;99.90;;;;;;5028467;28;20061;-90
2022/01/21 06:42:34;;;;;;;15.95;3.10;;;-5.40;99.90;;;;;;5029404;28;20140;-90
2022/01/21 06:45:02;;;;;;;16.17;3.90;;;-5.30;99.90;;;;;;5028805;28;20045;-90
2022/01/21 06:47:29;;;;;;;23.08;7.20;;;-5.30;99.90;;;;;;5028981;28;20137;-90
2022/01/21 06:49:59;;;;;;;21.70;5.15;;;-5.30;99.90;;;;;;5028622;28;20073;-90
2022/01/21 06:52:27;;;;;;;23.35;5.45;;;-5.20;99.90;;;;;;5028630;28;20054;-90
2022/01/21 06:54:55;;;;;;;9.45;3.88;;;-5.30;99.90;;;;;;5028422;28;20602;-91
2022/01/21 06:57:22;;;;;;;10.02;3.50;;;-5.30;99.90;;;;;;5028773;28;20201;-90
2022/01/21 06:59:49;;;;;;;15.13;4.07;;;-5.20;99.90;;;;;;5028884;28;20066;-91
2022/01/21 07:02:18;;;;;;;15.27;3.70;;;-5.20;99.90;;;;;;5029213;28;20494;-90
2022/01/21 07:04:49;;;;;;;13.73;3.35;;;-5.20;99.90;;;;;;5028510;28;20060;-90
2022/01/21 07:07:20;;;;;;;23.58;11.18;;;-5.20;99.90;;;;;;5028816;28;20077;-88
2022/01/21 07:09:47;;;;;;;46.80;22.55;;;-5.40;99.90;;;;;;5013937;28;20136;-90
2022/01/21 07:12:14;;;;;;;26.35;9.85;;;-5.40;99.90;;;;;;5016595;28;20046;-91
2022/01/21 07:14:41;;;;;;;16.13;4.65;;;-5.60;99.90;;;;;;5038017;28;20076;-88
2022/01/21 07:17:08;;;;;;;19.90;3.72;;;-5.70;99.90;;;;;;5033787;28;20046;-89
2022/01/21 07:19:35;;;;;;;18.67;3.50;;;-5.80;99.90;;;;;;5031766;28;20050;-90
2022/01/21 07:22:01;;;;;;;13.15;4.03;;;-5.80;99.90;;;;;;5032213;28;20435;-89
2022/01/21 07:24:28;;;;;;;28.05;10.43;;;-5.70;99.90;;;;;;5032387;28;20060;-90
2022/01/21 07:26:55;;;;;;;29.45;11.68;;;-5.60;99.90;;;;;;5015536;28;20566;-89
2022/01/21 07:29:22;;;;;;;31.85;8.85;;;-5.60;99.90;;;;;;5015804;28;20062;-90
2022/01/21 07:31:54;;;;;;;22.67;9.18;;;-5.40;99.90;;;;;;5031981;28;20049;-90
2022/01/21 07:34:23;;;;;;;23.73;6.30;;;-5.20;99.90;;;;;;5030953;28;20172;-90
2022/01/21 07:36:50;;;;;;;16.85;5.20;;;-4.90;99.90;;;;;;5031521;28;20046;-90
2022/01/21 07:39:17;;;;;;;18.45;4.55;;;-4.80;99.90;;;;;;5031116;28;20058;-90
2022/01/21 07:41:44;;;;;;;19.45;4.30;;;-4.80;99.90;;;;;;5015511;28;20137;-90
2022/01/21 07:44:14;;;;;;;19.13;3.78;;;-4.60;99.90;;;;;;5032093;28;20519;-90
2022/01/21 07:46:43;;;;;;;26.08;4.70;;;-4.40;99.90;;;;;;5031895;28;20133;-89
2022/01/21 07:49:10;;;;;;;14.50;4.30;;;-4.30;99.90;;;;;;5032048;28;20160;-90
2022/01/21 07:51:37;;;;;;;10.63;3.60;;;-4.20;99.90;;;;;;5031639;28;20053;-90
2022/01/21 07:54:05;;;;;;;20.35;4.63;;;-4.10;99.90;;;;;;5031585;28;20502;-91
2022/01/21 07:56:33;;;;;;;19.90;5.20;;;-4.00;99.90;;;;;;5031664;28;20129;-90
2022/01/21 07:59:02;;;;;;;19.98;4.78;;;-3.90;99.90;;;;;;5029846;28;20080;-90
2022/01/21 08:01:29;;;;;;;23.98;10.98;;;-3.90;99.90;;;;;;5031238;28;20049;-91
2022/01/21 08:03:56;;;;;;;22.85;6.97;;;-3.70;99.90;;;;;;5014907;28;20050;-91
2022/01/21 08:06:23;;;;;;;21.33;7.07;;;-3.60;99.90;;;;;;5031313;28;20554;-90
2022/01/21 08:08:50;;;;;;;26.55;7.68;;;-3.40;99.90;;;;;;5031387;28;20053;-91
2022/01/21 08:11:16;;;;;;;35.25;9.57;;;-3.20;99.90;;;;;;5031174;28;20042;-91
2022/01/21 08:13:43;;;;;;;35.20;13.30;;;-3.00;99.90;;;;;;5031172;28;20058;-91
2022/01/21 08:16:10;;;;;;;28.33;12.57;;;-2.90;99.90;;;;;;5014736;28;20049;-91
2022/01/21 08:18:36;;;;;;;20.67;11.32;;;-2.80;99.90;;;;;;5014712;28;20486;-90
2022/01/21 08:21:04;;;;;;;22.85;8.00;;;-2.70;99.90;;;;;;5014457;28;20046;-91
2022/01/21 08:23:30;;;;;;;19.13;7.60;;;-2.60;99.90;;;;;;5031207;28;20053;-91
2022/01/21 08:25:57;;;;;;;22.23;7.07;;;-2.40;99.90;;;;;;5031153;28;20046;-92
2022/01/21 08:28:24;;;;;;;25.40;8.00;;;-2.30;99.90;;;;;;5030889;28;20085;-92
2022/01/21 08:30:51;;;;;;;14.15;4.70;;;-2.10;99.90;;;;;;5030979;28;20149;-91
2022/01/21 08:33:18;;;;;;;20.15;7.85;;;-2.00;99.90;;;;;;5031129;28;20137;-93
2022/01/21 08:35:44;;;;;;;14.43;4.85;;;-1.90;99.90;;;;;;5030864;28;20137;-92
2022/01/21 08:38:11;;;;;;;14.07;3.80;;;-1.90;99.90;;;;;;5030497;28;20145;-92
2022/01/21 08:40:38;;;;;;;33.92;15.73;;;-1.70;99.90;;;;;;5030146;28;20050;-92
2022/01/21 08:43:04;;;;;;;30.73;11.63;;;-1.70;99.90;;;;;;5014448;28;20550;-92
2022/01/21 08:45:32;;;;;;;129.88;45.92;;;-1.70;99.90;;;;;;5013930;28;20050;-92
2022/01/21 08:47:59;;;;;;;227.95;94.25;;;-1.80;99.90;;;;;;5014143;28;20128;-91
2022/01/21 08:50:27;;;;;;;63.67;25.73;;;-2.00;99.90;;;;;;5014571;28;20058;-92
2022/01/21 08:53:06;;;;;;;79.15;29.10;;;-2.10;99.90;;;;;;5014146;28;20073;-92
2022/01/21 08:55:34;;;;;;;29.08;11.75;;;-1.90;99.90;;;;;;5013065;28;20069;-93
2022/01/21 08:58:01;;;;;;;26.05;7.90;;;-1.50;99.90;;;;;;5013890;28;20145;-92
2022/01/21 09:00:28;;;;;;;44.55;18.15;;;-1.30;99.90;;;;;;5030141;28;20046;-93
2022/01/21 09:02:55;;;;;;;18.83;7.03;;;-1.00;99.90;;;;;;5013964;28;20128;-93
2022/01/21 09:05:22;;;;;;;20.17;6.43;;;-0.70;99.90;;;;;;5030497;28;20050;-93
2022/01/21 09:07:48;;;;;;;22.42;8.90;;;-0.50;99.90;;;;;;5030255;28;20129;-92
2022/01/21 09:10:15;;;;;;;168.15;58.13;;;-0.40;99.90;;;;;;5030002;28;20052;-92
2022/01/21 09:12:42;;;;;;;280.95;123.93;;;-0.60;99.90;;;;;;5014112;28;20276;-92
2022/01/21 09:15:09;;;;;;;27.27;10.13;;;-0.90;99.90;;;;;;5013824;28;20050;-92
2022/01/21 09:17:37;;;;;;;30.25;12.00;;;-1.00;99.90;;;;;;5014019;28;20064;-93
2022/01/21 09:20:04;;;;;;;26.13;10.63;;;-0.80;99.90;;;;;;5013410;28;20882;-92
2022/01/21 09:22:31;;;;;;;29.08;11.15;;;-0.90;99.90;;;;;;5013836;28;20157;-92
2022/01/21 09:24:58;;;;;;;23.88;10.68;;;-1.00;99.90;;;;;;5013490;28;20608;-92
2022/01/21 09:27:25;;;;;;;24.45;9.20;;;-1.00;99.90;;;;;;5013632;28;20531;-93
2022/01/21 09:29:51;;;;;;;18.63;6.15;;;-0.80;99.90;;;;;;5031185;28;20045;-93
2022/01/21 09:32:18;;;;;;;19.40;6.20;;;-0.60;99.90;;;;;;5030872;28;20050;-93
2022/01/21 09:34:45;;;;;;;19.40;7.07;;;-0.40;99.90;;;;;;5029794;28;20061;-92
2022/01/21 09:37:11;;;;;;;15.65;7.68;;;-0.20;99.90;;;;;;5030045;28;20053;-93
2022/01/21 09:39:38;;;;;;;15.25;5.85;;;0.10;99.90;;;;;;5029852;28;20137;-92
2022/01/21 09:42:06;;;;;;;46.88;17.27;;;0.20;99.90;;;;;;5030053;28;20129;-93
2022/01/21 09:44:34;;;;;;;22.17;11.18;;;0.50;99.90;;;;;;5015579;28;20049;-93
2022/01/21 09:47:03;;;;;;;21.40;6.88;;;0.80;99.90;;;;;;5013674;28;20136;-93
2022/01/21 09:49:30;;;;;;;13.98;4.10;;;1.00;99.90;;;;;;5029856;28;20054;-93
2022/01/21 09:52:03;;;;;;;14.48;4.80;;;1.10;99.90;;;;;;5029071;28;20077;-94
2022/01/21 09:54:37;;;;;;;17.27;4.13;;;1.20;99.90;;;;;;5026067;28;20457;-93
2022/01/21 09:57:07;;;;;;;10.07;4.13;;;1.20;99.90;;;;;;5011999;28;20121;-93
2022/01/21 09:59:36;;;;;;;11.90;3.05;;;1.30;99.90;;;;;;5028880;28;20144;-92
2022/01/21 10:02:05;;;;;;;9.85;4.97;;;1.50;99.90;;;;;;5028949;28;20145;-92
2022/01/21 10:04:36;;;;;;;19.55;6.32;;;1.70;99.90;;;;;;5029472;28;20046;-93
2022/01/21 10:07:03;;;;;;;10.90;3.85;;;1.90;99.90;;;;;;5030185;28;20545;-93
2022/01/21 10:09:31;;;;;;;6.57;3.17;;;1.90;99.90;;;;;;5030137;28;20137;-92
2022/01/21 10:12:01;;;;;;;11.73;4.57;;;2.10;99.90;;;;;;5029654;28;20133;-92
2022/01/21 10:14:29;;;;;;;8.35;1.90;;;2.20;99.90;;;;;;5029897;28;20137;-91
2022/01/21 10:16:58;;;;;;;6.80;1.92;;;2.20;99.90;;;;;;5029298;28;20046;-92
2022/01/21 10:19:31;;;;;;;5.03;1.65;;;2.20;99.90;;;;;;5028827;28;20173;-92
2022/01/21 10:22:03;;;;;;;6.88;1.55;;;2.40;99.90;;;;;;5029292;28;20395;-92
2022/01/21 10:24:32;;;;;;;5.53;1.35;;;2.50;99.90;;;;;;5033531;28;20060;-92
2022/01/21 10:26:59;;;;;;;4.40;1.40;;;2.60;99.90;;;;;;5028804;28;20153;-90
2022/01/21 10:29:41;;;;;;;6.45;1.70;;;2.60;99.90;;;;;;5029068;28;20050;-90
2022/01/21 10:32:08;;;;;;;5.50;1.50;;;2.60;99.90;;;;;;5029217;28;20054;-91
2022/01/21 10:34:38;;;;;;;10.05;1.63;;;2.50;99.90;;;;;;5029055;28;20133;-89
2022/01/21 10:37:41;;;;;;;6.35;2.33;;;2.50;99.90;;;;;;5028368;28;20050;-90
2022/01/21 10:40:10;;;;;;;6.20;1.17;;;2.50;99.90;;;;;;4975514;28;20383;-90
2022/01/21 10:42:38;;;;;;;5.43;0.98;;;2.40;99.90;;;;;;5008825;28;20045;-91
2022/01/21 10:45:07;;;;;;;4.88;1.00;;;2.30;99.90;;;;;;5032207;28;20072;-91
2022/01/21 10:47:37;;;;;;;5.20;1.05;;;2.40;99.90;;;;;;5032861;28;20046;-92
2022/01/21 10:50:03;;;;;;;8.20;1.30;;;2.40;99.90;;;;;;5032205;28;20481;-89
2022/01/21 10:52:33;;;;;;;3.67;1.35;;;2.40;99.90;;;;;;5032831;28;20128;-89
2022/01/21 10:55:01;;;;;;;10.95;1.65;;;2.30;99.90;;;;;;5032415;28;20046;-89
2022/01/21 10:57:30;;;;;;;9.82;1.88;;;2.20;99.90;;;;;;5032763;28;20487;-88
2022/01/21 11:00:03;;;;;;;7.63;1.25;;;2.00;99.90;;;;;;5032028;28;20577;-90
2022/01/21 11:02:41;;;;;;;10.05;2.05;;;1.90;99.90;;;;;;5032358;28;20049;-89
2022/01/21 11:05:14;;;;;;;6.55;1.73;;;1.80;99.90;;;;;;5032151;28;20054;-88
2022/01/21 11:07:54;;;;;;;10.75;2.20;;;1.80;99.90;;;;;;5032696;28;20136;-88
2022/01/21 11:10:36;;;;;;;3.65;1.40;;;1.90;99.90;;;;;;5032365;28;20050;-88
2022/01/21 11:13:22;;;;;;;8.38;2.15;;;1.90;99.90;;;;;;5032336;28;20073;-88
2022/01/21 11:16:10;;;;;;;8.60;1.85;;;1.80;99.90;;;;;;5032060;28;20072;-89
2022/01/21 11:19:07;;;;;;;8.20;1.20;;;1.90;99.90;;;;;;5029335;28;20054;-88
2022/01/21 11:21:44;;;;;;;7.85;1.80;;;2.30;99.90;;;;;;5032019;28;20064;-88
2022/01/21 11:24:13;;;;;;;3.45;1.52;;;2.60;99.90;;;;;;5032015;28;20104;-89
2022/01/21 11:26:40;;;;;;;9.77;1.80;;;2.80;99.90;;;;;;5031961;28;20054;-88
2022/01/21 11:29:09;;;;;;;6.32;1.50;;;2.80;99.90;;;;;;5032033;28;20103;-87
2022/01/21 11:31:36;;;;;;;9.02;1.77;;;2.70;99.90;;;;;;5016679;28;20578;-88
2022/01/21 11:34:08;;;;;;;5.60;1.47;;;2.60;99.90;;;;;;5031209;28;20049;-91
2022/01/21 11:36:35;;;;;;;8.55;1.30;;;2.40;99.90;;;;;;5015309;28;20049;-88
2022/01/21 11:39:02;;;;;;;5.60;1.45;;;2.20;99.90;;;;;;5014487;28;20061;-88
2022/01/21 11:41:31;;;;;;;14.18;1.60;;;2.20;99.90;;;;;;5016334;28;20168;-88
2022/01/21 11:44:01;;;;;;;5.88;1.50;;;2.10;99.90;;;;;;5031343;28;20052;-87
2022/01/21 11:49:04;;;;;;;6.90;1.30;;;2.10;99.90;;;;;;5015943;28;20053;-89
2022/01/21 11:51:33;;;;;;;4.68;1.17;;;2.20;99.90;;;;;;5031857;28;20266;-88
2022/01/21 11:54:03;;;;;;;3.55;1.10;;;2.20;99.90;;;;;;5030421;28;20132;-89
2022/01/21 11:56:43;;;;;;;8.80;1.23;;;2.20;99.90;;;;;;5030081;28;20050;-89
2022/01/21 12:02:15;;;;;;;4.32;1.15;;;2.50;99.90;;;;;;5015907;28;20046;-88
2022/01/21 12:04:47;;;;;;;3.67;1.00;;;2.50;99.90;;;;;;5030780;28;20050;-88
2022/01/21 12:07:33;;;;;;;4.25;1.13;;;2.50;99.90;;;;;;5031458;28;20050;-88
2022/01/21 12:10:29;;;;;;;3.40;1.20;;;2.70;99.90;;;;;;5015759;28;20130;-90
2022/01/21 12:12:59;;;;;;;4.30;1.10;;;2.80;99.90;;;;;;5015507;28;20561;-89
2022/01/21 12:15:41;;;;;;;3.05;0.90;;;2.80;99.90;;;;;;5031253;28;20103;-90
2022/01/21 12:20:55;;;;;;;2.55;0.80;;;2.50;99.90;;;;;;5015932;28;20093;-87
2022/01/21 12:23:24;;;;;;;4.55;1.05;;;2.60;99.90;;;;;;5030988;28;20421;-89
2022/01/21 12:26:09;;;;;;;3.42;1.25;;;2.70;99.90;;;;;;5015735;28;20422;-88
2022/01/21 12:28:37;;;;;;;3.30;1.00;;;2.60;99.90;;;;;;5030758;28;20078;-89
2022/01/21 12:31:05;;;;;;;5.65;0.85;;;2.60;99.90;;;;;;5030869;28;20045;-88
2022/01/21 12:34:03;;;;;;;3.40;0.68;;;2.60;99.90;;;;;;5030971;28;20172;-88
2022/01/21 12:36:36;;;;;;;1.85;0.75;;;2.70;99.90;;;;;;5030801;28;20482;-88
2022/01/21 12:39:24;;;;;;;2.88;1.42;;;2.70;99.90;;;;;;5014634;28;20064;-87
2022/01/21 12:41:56;;;;;;;4.43;1.10;;;2.70;99.90;;;;;;5030082;28;20054;-88
2022/01/21 12:44:30;;;;;;;3.03;0.80;;;2.60;99.90;;;;;;5015250;28;20045;-88
2022/01/21 12:46:58;;;;;;;12.00;1.20;;;2.80;99.90;;;;;;5030720;28;20061;-89
2022/01/21 12:49:36;;;;;;;2.97;1.08;;;3.50;99.90;;;;;;5030547;28;20137;-89
2022/01/21 12:57:27;;;;;;;3.00;0.98;;;3.90;99.90;;;;;;5015272;28;20132;-89
2022/01/21 12:59:55;;;;;;;3.47;1.33;;;3.80;99.90;;;;;;5014565;28;20056;-89
2022/01/21 13:02:27;;;;;;;3.05;1.13;;;3.90;99.90;;;;;;5030355;28;20479;-89
2022/01/21 13:05:16;;;;;;;2.22;0.90;;;4.00;99.90;;;;;;5030145;28;20054;-88
2022/01/21 13:07:58;;;;;;;2.58;0.70;;;4.10;99.90;;;;;;5029715;28;20402;-90
2022/01/21 13:10:28;;;;;;;2.92;1.05;;;4.00;99.90;;;;;;5030221;28;20152;-88
2022/01/21 13:13:01;;;;;;;1.45;0.50;;;3.80;99.90;;;;;;5030275;28;20082;-89
2022/01/21 13:15:50;;;;;;;2.88;0.93;;;4.00;99.90;;;;;;5029743;28;20501;-88
2022/01/21 13:18:24;;;;;;;2.33;0.95;;;4.20;99.90;;;;;;5031072;28;20080;-91
2022/01/21 13:20:57;;;;;;;2.40;0.73;;;4.00;99.90;;;;;;5029691;28;20483;-88
2022/01/21 13:23:57;;;;;;;3.25;0.85;;;3.90;99.90;;;;;;5030512;28;20050;-89
2022/01/21 13:26:31;;;;;;;4.60;0.80;;;3.80;99.90;;;;;;5030389;28;20049;-89
2022/01/21 13:29:07;;;;;;;2.25;0.80;;;3.80;99.90;;;;;;5029945;28;20049;-89
2022/01/21 13:31:48;;;;;;;6.32;0.73;;;3.80;99.90;;;;;;5030071;28;20064;-89
2022/01/21 13:34:18;;;;;;;2.38;0.73;;;3.90;99.90;;;;;;5030135;28;20057;-89
2022/01/21 13:36:47;;;;;;;1.33;0.73;;;3.90;99.90;;;;;;5029851;28;20045;-88
2022/01/21 13:39:23;;;;;;;2.47;0.60;;;4.00;99.90;;;;;;5029309;28;20060;-88
2022/01/21 13:42:12;;;;;;;3.55;0.80;;;4.40;99.90;;;;;;5030024;28;20053;-88
2022/01/21 13:45:08;;;;;;;2.72;0.88;;;4.50;99.90;;;;;;5013368;28;20049;-88
2022/01/21 13:47:47;;;;;;;4.28;1.00;;;4.20;99.90;;;;;;5005733;28;20144;-94
2022/01/21 13:50:20;;;;;;;1.95;1.20;;;3.90;99.90;;;;;;5030013;28;20498;-89
2022/01/21 13:52:47;;;;;;;;;;;3.70;99.90;;;;;;5029885;28;20060;-88
2022/01/21 13:55:39;;;;;;;13.02;6.43;;;3.70;99.90;;;;;;5029307;28;19955;-88
2022/01/21 13:58:09;;;;;;;4.50;0.98;;;3.70;99.90;;;;;;5029360;28;20049;-87